createdAt,value
2019-05-15T00:00:09.104Z,7.98
2019-05-15T00:01:09.057Z,8.05
2019-05-15T00:02:10.908Z,8.05
2019-05-15T00:03:08.866Z,8.13
2019-05-15T00:04:09.351Z,8.23
2019-05-15T00:05:09.101Z,8.17
2019-05-15T00:06:08.836Z,8.27
2019-05-15T00:07:08.969Z,8.35
2019-05-15T00:08:09.431Z,8.34
2019-05-15T00:09:08.513Z,8.41
2019-05-15T00:10:08.881Z,8.41
2019-05-15T00:11:08.577Z,8.46
2019-05-15T00:12:08.543Z,8.46
2019-05-15T00:13:09.255Z,8.57
2019-05-15T00:14:08.796Z,8.60
2019-05-15T00:15:09.254Z,8.57
2019-05-15T00:16:08.590Z,8.61
2019-05-15T00:17:08.301Z,8.63
2019-05-15T00:18:08.824Z,8.66
2019-05-15T00:19:08.673Z,8.59
2019-05-15T00:20:09.969Z,8.59
2019-05-15T00:21:09.269Z,8.60
2019-05-15T00:22:08.618Z,8.66
2019-05-15T00:23:08.491Z,8.66
2019-05-15T00:24:12.704Z,8.60
2019-05-15T00:25:09.231Z,8.68
2019-05-15T00:26:09.277Z,8.64
2019-05-15T00:27:08.149Z,8.60
2019-05-15T00:28:09.451Z,8.63
2019-05-15T00:29:12.822Z,8.61
2019-05-15T00:30:08.676Z,8.61
2019-05-15T00:31:09.019Z,8.61
2019-05-15T00:32:09.194Z,8.64
2019-05-15T00:33:08.962Z,8.54
2019-05-15T00:34:12.482Z,8.59
2019-05-15T00:35:09.355Z,8.52
2019-05-15T00:36:08.630Z,8.60
2019-05-15T00:37:09.074Z,8.54
2019-05-15T00:38:09.319Z,8.60
2019-05-15T00:39:08.548Z,8.52
2019-05-15T00:40:08.834Z,8.52
2019-05-15T00:41:09.141Z,8.53
2019-05-15T00:42:08.264Z,8.53
2019-05-15T00:44:31.657Z,8.53
2019-05-15T00:45:31.606Z,8.45
2019-05-15T00:46:31.559Z,8.36
2019-05-15T00:47:31.509Z,8.42
2019-05-15T00:48:31.469Z,8.44
2019-05-15T00:49:31.574Z,8.38
2019-05-15T00:50:31.670Z,8.45
2019-05-15T00:51:31.413Z,8.35
2019-05-15T00:52:31.420Z,8.41
2019-05-15T00:53:31.423Z,8.38
2019-05-15T00:54:31.324Z,8.41
2019-05-15T00:55:31.214Z,8.42
2019-05-15T00:56:31.142Z,8.44
2019-05-15T00:57:31.181Z,8.35
2019-05-15T00:58:31.087Z,8.32
2019-05-15T00:59:31.083Z,8.32
2019-05-15T01:00:30.995Z,8.35
2019-05-15T01:01:31.073Z,8.31
2019-05-15T01:02:30.910Z,8.34
2019-05-15T01:03:30.796Z,8.38
2019-05-15T01:04:30.735Z,8.34
2019-05-15T01:05:30.652Z,8.28
2019-05-15T01:06:30.603Z,8.18
2019-05-15T01:07:30.550Z,8.23
2019-05-15T01:08:30.505Z,8.24
2019-05-15T01:09:30.456Z,8.20
2019-05-15T01:10:30.409Z,8.17
2019-05-15T01:11:30.365Z,8.16
2019-05-15T01:12:30.312Z,8.08
2019-05-15T01:13:30.268Z,8.06
2019-05-15T01:14:30.220Z,8.06
2019-05-15T01:15:30.172Z,8.05
2019-05-15T01:16:30.123Z,8.03
2019-05-15T01:17:30.072Z,8.05
2019-05-15T01:18:30.022Z,7.99
2019-05-15T01:19:29.984Z,8.01
2019-05-15T01:20:29.931Z,7.93
2019-05-15T01:21:29.883Z,8.01
2019-05-15T01:22:29.840Z,7.85
2019-05-15T01:23:29.784Z,7.91
2019-05-15T01:24:29.737Z,7.91
2019-05-15T01:25:29.690Z,7.85
2019-05-15T01:26:29.644Z,7.80
2019-05-15T01:27:29.596Z,7.81
2019-05-15T01:28:29.548Z,7.80
2019-05-15T01:29:41.053Z,7.80
2019-05-15T01:30:29.463Z,7.78
2019-05-15T01:31:29.403Z,7.77
2019-05-15T01:32:29.351Z,7.74
2019-05-15T01:33:29.308Z,7.69
2019-05-15T01:34:29.506Z,7.69
2019-05-15T01:35:29.205Z,7.62
2019-05-15T01:36:29.163Z,7.78
2019-05-15T01:37:29.114Z,7.70
2019-05-15T01:38:29.065Z,7.67
2019-05-15T01:39:29.215Z,7.72
2019-05-15T01:40:29.058Z,7.59
2019-05-15T01:41:28.919Z,7.72
2019-05-15T01:42:28.870Z,7.56
2019-05-15T01:43:29.211Z,7.64
2019-05-15T01:44:28.886Z,7.64
2019-05-15T01:45:28.731Z,7.64
2019-05-15T01:46:28.731Z,7.61
2019-05-15T01:47:28.635Z,7.56
2019-05-15T01:48:28.588Z,7.66
2019-05-15T01:49:28.536Z,7.59
2019-05-15T01:50:29.255Z,7.62
2019-05-15T01:51:28.717Z,7.69
2019-05-15T01:52:28.393Z,7.64
2019-05-15T01:53:29.047Z,7.58
2019-05-15T01:54:28.859Z,7.66
2019-05-15T01:55:28.472Z,7.59
2019-05-15T01:56:29.270Z,7.56
2019-05-15T01:57:28.763Z,7.58
2019-05-15T01:58:28.704Z,7.56
2019-05-15T01:59:28.439Z,7.53
2019-05-15T02:00:28.297Z,7.56
2019-05-15T02:01:28.453Z,7.58
2019-05-15T02:02:28.090Z,7.56
2019-05-15T02:03:28.982Z,7.58
2019-05-15T02:04:28.983Z,7.55
2019-05-15T02:05:28.272Z,7.56
2019-05-15T02:06:28.524Z,7.56
2019-05-15T02:07:28.059Z,7.59
2019-05-15T02:08:28.408Z,7.56
2019-05-15T02:09:28.088Z,7.56
2019-05-15T02:11:28.914Z,7.44
2019-05-15T02:12:28.560Z,7.58
2019-05-15T02:13:28.291Z,7.48
2019-05-15T02:14:28.485Z,7.46
2019-05-15T02:15:28.538Z,7.51
2019-05-15T02:16:28.626Z,7.47
2019-05-15T02:17:28.318Z,7.51
2019-05-15T02:18:28.510Z,7.50
2019-05-15T02:19:28.747Z,7.51
2019-05-15T02:20:29.095Z,7.48
2019-05-15T02:21:28.924Z,7.46
2019-05-15T02:22:28.327Z,7.53
2019-05-15T02:23:28.061Z,7.48
2019-05-15T02:24:28.454Z,7.46
2019-05-15T02:25:28.017Z,7.43
2019-05-15T02:26:28.225Z,7.43
2019-05-15T02:27:28.774Z,7.36
2019-05-15T02:28:28.729Z,7.43
2019-05-15T02:29:28.609Z,7.36
2019-05-15T02:30:30.065Z,7.33
2019-05-15T02:31:29.765Z,7.32
2019-05-15T02:32:29.879Z,7.29
2019-05-15T02:33:29.740Z,7.33
2019-05-15T02:34:29.703Z,7.28
2019-05-15T02:35:29.274Z,7.32
2019-05-15T02:36:29.176Z,7.19
2019-05-15T02:38:29.267Z,7.26
2019-05-15T02:39:28.769Z,7.31
2019-05-15T02:40:29.179Z,7.18
2019-05-15T02:41:26.023Z,7.14
2019-05-15T02:42:28.714Z,7.15
2019-05-15T02:43:25.927Z,7.14
2019-05-15T02:44:28.889Z,7.14
2019-05-15T02:45:25.838Z,7.15
2019-05-15T02:46:25.782Z,7.15
2019-05-15T02:47:28.889Z,7.07
2019-05-15T02:48:28.728Z,7.11
2019-05-15T02:49:25.662Z,7.05
2019-05-15T02:50:25.589Z,7.07
2019-05-15T02:51:25.540Z,7.05
2019-05-15T02:52:25.490Z,7.04
2019-05-15T02:53:25.439Z,7.03
2019-05-15T02:54:25.393Z,6.92
2019-05-15T02:55:25.349Z,6.96
2019-05-15T02:56:25.297Z,6.97
2019-05-15T02:57:25.248Z,6.95
2019-05-15T02:58:25.200Z,6.97
2019-05-15T02:59:25.150Z,6.92
2019-05-15T03:00:38.007Z,6.87
2019-05-15T03:01:25.049Z,6.96
2019-05-15T03:02:25.006Z,6.90
2019-05-15T03:03:24.954Z,6.95
2019-05-15T03:04:24.909Z,6.93
2019-05-15T03:05:24.856Z,6.85
2019-05-15T03:06:24.811Z,6.87
2019-05-15T03:07:24.760Z,6.89
2019-05-15T03:08:24.716Z,6.90
2019-05-15T03:09:24.671Z,6.85
2019-05-15T03:10:24.618Z,6.85
2019-05-15T03:11:24.572Z,6.86
2019-05-15T03:12:24.519Z,6.86
2019-05-15T03:13:24.473Z,6.90
2019-05-15T03:14:24.420Z,6.82
2019-05-15T03:15:24.370Z,6.82
2019-05-15T03:16:24.329Z,6.87
2019-05-15T03:17:24.281Z,6.85
2019-05-15T03:18:24.229Z,6.87
2019-05-15T03:20:24.134Z,6.86
2019-05-15T03:21:24.081Z,6.86
2019-05-15T03:22:24.034Z,6.86
2019-05-15T03:23:23.987Z,6.80
2019-05-15T03:24:23.941Z,6.77
2019-05-15T03:25:23.888Z,6.83
2019-05-15T03:26:23.841Z,6.83
2019-05-15T03:27:23.792Z,6.86
2019-05-15T03:28:23.741Z,6.86
2019-05-15T03:29:23.691Z,6.87
2019-05-15T03:30:23.646Z,6.87
2019-05-15T03:31:48.105Z,6.82
2019-05-15T03:32:33.969Z,6.82
2019-05-15T03:33:27.668Z,6.83
2019-05-15T03:34:31.024Z,6.83
2019-05-15T03:35:23.666Z,6.89
2019-05-15T03:36:24.512Z,6.90
2019-05-15T03:37:23.339Z,6.86
2019-05-15T03:38:23.270Z,6.87
2019-05-15T03:39:23.208Z,6.89
2019-05-15T03:40:23.167Z,6.83
2019-05-15T03:41:23.109Z,6.87
2019-05-15T03:42:23.057Z,6.85
2019-05-15T03:43:23.030Z,6.90
2019-05-15T03:44:22.967Z,6.90
2019-05-15T03:45:22.922Z,6.87
2019-05-15T03:46:22.870Z,6.83
2019-05-15T03:47:22.819Z,6.87
2019-05-15T03:48:22.771Z,6.90
2019-05-15T03:49:22.720Z,6.93
2019-05-15T03:50:22.672Z,6.83
2019-05-15T03:51:22.623Z,6.93
2019-05-15T03:52:22.571Z,6.85
2019-05-15T03:53:22.525Z,6.89
2019-05-15T03:54:22.477Z,6.90
2019-05-15T03:55:22.429Z,6.90
2019-05-15T03:56:22.380Z,6.90
2019-05-15T03:57:23.291Z,6.90
2019-05-15T03:58:22.297Z,6.90
2019-05-15T03:59:22.242Z,6.89
2019-05-15T04:00:22.184Z,6.89
2019-05-15T04:01:34.045Z,6.87
2019-05-15T04:02:22.097Z,6.90
2019-05-15T04:03:22.039Z,6.85
2019-05-15T04:04:21.988Z,6.90
2019-05-15T04:05:21.944Z,6.90
2019-05-15T04:06:21.892Z,6.95
2019-05-15T04:07:21.842Z,6.89
2019-05-15T04:08:21.796Z,6.89
2019-05-15T04:09:21.748Z,6.92
2019-05-15T04:10:21.696Z,6.97
2019-05-15T04:11:21.651Z,6.95
2019-05-15T04:12:21.625Z,7.00
2019-05-15T04:13:21.553Z,7.03
2019-05-15T04:14:21.505Z,6.96
2019-05-15T04:15:21.457Z,7.01
2019-05-15T04:16:21.413Z,6.96
2019-05-15T04:17:21.358Z,7.04
2019-05-15T04:18:21.311Z,7.01
2019-05-15T04:19:21.259Z,6.97
2019-05-15T04:20:21.216Z,7.00
2019-05-15T04:21:21.165Z,7.07
2019-05-15T04:22:21.114Z,7.07
2019-05-15T04:23:21.066Z,7.08
2019-05-15T04:24:21.016Z,7.01
2019-05-15T04:26:20.925Z,7.04
2019-05-15T04:27:20.881Z,7.05
2019-05-15T04:28:20.820Z,7.00
2019-05-15T04:29:20.772Z,7.11
2019-05-15T04:30:20.725Z,7.11
2019-05-15T04:31:20.683Z,7.13
2019-05-15T04:32:20.630Z,7.15
2019-05-15T04:33:20.589Z,7.13
2019-05-15T04:34:20.532Z,7.13
2019-05-15T04:35:20.485Z,7.11
2019-05-15T04:36:20.443Z,7.19
2019-05-15T04:37:20.385Z,7.29
2019-05-15T04:38:20.342Z,7.31
2019-05-15T04:39:20.291Z,7.23
2019-05-15T04:41:20.277Z,7.22
2019-05-15T04:42:20.538Z,7.36
2019-05-15T04:43:20.095Z,7.25
2019-05-15T04:44:20.049Z,7.32
2019-05-15T04:45:19.996Z,7.33
2019-05-15T04:46:20.172Z,7.26
2019-05-15T04:47:19.902Z,7.28
2019-05-15T04:48:20.232Z,7.39
2019-05-15T04:49:19.880Z,7.37
2019-05-15T04:50:19.757Z,7.33
2019-05-15T04:51:19.718Z,7.33
2019-05-15T04:52:19.672Z,7.43
2019-05-15T04:53:19.613Z,7.50
2019-05-15T04:55:19.871Z,7.47
2019-05-15T04:56:19.528Z,7.47
2019-05-15T04:57:19.578Z,7.47
2019-05-15T04:58:20.797Z,7.46
2019-05-15T04:59:19.883Z,7.44
2019-05-15T05:00:19.854Z,7.53
2019-05-15T05:01:20.175Z,7.55
2019-05-15T05:02:26.662Z,7.59
2019-05-15T05:03:20.253Z,7.61
2019-05-15T05:04:19.080Z,7.53
2019-05-15T05:05:19.031Z,7.72
2019-05-15T05:06:19.262Z,7.75
2019-05-15T05:07:19.036Z,7.69
2019-05-15T05:08:20.099Z,7.70
2019-05-15T05:09:19.855Z,7.75
2019-05-15T05:10:19.593Z,7.78
2019-05-15T05:11:20.601Z,7.74
2019-05-15T05:12:19.286Z,7.84
2019-05-15T05:13:19.778Z,7.85
2019-05-15T05:14:21.259Z,7.83
2019-05-15T05:15:19.080Z,7.84
2019-05-15T05:16:19.237Z,7.88
2019-05-15T05:17:19.592Z,7.98
2019-05-15T05:18:18.995Z,7.90
2019-05-15T05:19:19.598Z,7.91
2019-05-15T05:20:18.303Z,8.02
2019-05-15T05:21:18.501Z,7.99
2019-05-15T05:22:18.714Z,8.05
2019-05-15T05:23:19.250Z,8.08
2019-05-15T05:24:18.530Z,8.11
2019-05-15T05:25:18.315Z,8.17
2019-05-15T05:26:18.708Z,8.08
2019-05-15T05:27:18.324Z,8.14
2019-05-15T05:28:18.195Z,8.20
2019-05-15T05:29:17.898Z,8.20
2019-05-15T05:30:19.001Z,8.23
2019-05-15T05:31:19.127Z,8.34
2019-05-15T05:32:31.297Z,8.32
2019-05-15T05:33:18.143Z,8.28
2019-05-15T05:34:19.371Z,8.36
2019-05-15T05:35:18.519Z,8.36
2019-05-15T05:36:18.542Z,8.42
2019-05-15T05:37:18.441Z,8.46
2019-05-15T05:38:19.193Z,8.45
2019-05-15T05:39:19.938Z,8.45
2019-05-15T05:40:18.982Z,8.53
2019-05-15T05:41:18.986Z,8.46
2019-05-15T05:42:18.508Z,8.54
2019-05-15T05:43:18.432Z,8.54
2019-05-15T05:44:18.877Z,8.63
2019-05-15T05:45:18.130Z,8.77
2019-05-15T05:46:18.445Z,8.68
2019-05-15T05:47:18.308Z,8.69
2019-05-15T05:48:18.781Z,8.75
2019-05-15T05:49:18.515Z,8.71
2019-05-15T05:50:18.243Z,8.77
2019-05-15T05:51:18.948Z,8.87
2019-05-15T05:52:18.538Z,8.86
2019-05-15T05:53:16.710Z,8.84
2019-05-15T05:54:18.161Z,8.81
2019-05-15T05:55:17.865Z,8.93
2019-05-15T05:56:18.131Z,8.99
2019-05-15T05:57:16.517Z,8.87
2019-05-15T05:58:19.488Z,8.96
2019-05-15T05:59:18.530Z,9.08
2019-05-15T06:00:18.162Z,9.08
2019-05-15T06:01:18.566Z,9.13
2019-05-15T06:02:18.502Z,9.15
2019-05-15T06:03:19.259Z,9.16
2019-05-15T06:04:18.413Z,9.24
2019-05-15T06:05:18.829Z,9.26
2019-05-15T06:06:18.450Z,9.31
2019-05-15T06:07:18.346Z,9.29
2019-05-15T06:08:19.134Z,9.34
2019-05-15T06:09:18.142Z,9.31
2019-05-15T06:10:18.157Z,9.31
2019-05-15T06:11:17.837Z,9.44
2019-05-15T06:12:15.804Z,9.45
2019-05-15T06:13:15.756Z,9.54
2019-05-15T06:14:18.117Z,9.52
2019-05-15T06:15:17.887Z,9.58
2019-05-15T06:16:15.612Z,9.63
2019-05-15T06:17:15.565Z,9.56
2019-05-15T06:18:15.534Z,9.66
2019-05-15T06:19:15.469Z,9.72
2019-05-15T06:20:15.420Z,9.74
2019-05-15T06:21:17.806Z,9.80
2019-05-15T06:22:15.337Z,9.82
2019-05-15T06:23:15.285Z,9.88
2019-05-15T06:24:15.227Z,9.88
2019-05-15T06:25:15.197Z,9.92
2019-05-15T06:26:15.142Z,9.97
2019-05-15T06:27:15.089Z,10.00
2019-05-15T06:28:15.040Z,9.99
2019-05-15T06:29:14.990Z,10.18
2019-05-15T06:30:20.329Z,10.23
2019-05-15T06:31:14.895Z,10.25
2019-05-15T06:32:14.849Z,10.15
2019-05-15T06:33:14.802Z,10.27
2019-05-15T06:34:14.769Z,10.31
2019-05-15T06:35:14.706Z,10.34
2019-05-15T06:36:14.663Z,10.39
2019-05-15T06:37:14.613Z,10.48
2019-05-15T06:38:14.567Z,10.48
2019-05-15T06:39:14.516Z,10.59
2019-05-15T06:40:14.470Z,10.58
2019-05-15T06:41:14.424Z,10.64
2019-05-15T06:42:14.375Z,10.61
2019-05-15T06:43:14.330Z,10.75
2019-05-15T06:44:14.280Z,10.79
2019-05-15T06:45:14.232Z,10.80
2019-05-15T06:46:14.187Z,10.86
2019-05-15T06:47:14.140Z,10.92
2019-05-15T06:48:14.094Z,10.84
2019-05-15T06:49:14.045Z,10.97
2019-05-15T06:50:13.999Z,11.00
2019-05-15T06:52:13.909Z,11.10
2019-05-15T06:53:13.859Z,11.19
2019-05-15T06:54:13.810Z,11.19
2019-05-15T06:55:13.762Z,11.30
2019-05-15T06:56:13.713Z,11.26
2019-05-15T06:57:13.669Z,11.30
2019-05-15T06:58:13.623Z,11.35
2019-05-15T06:59:13.577Z,11.44
2019-05-15T07:00:13.528Z,11.44
2019-05-15T07:01:13.481Z,11.43
2019-05-15T07:02:13.434Z,11.43
2019-05-15T07:03:21.594Z,11.45
2019-05-15T07:04:13.343Z,11.49
2019-05-15T07:05:13.294Z,11.60
2019-05-15T07:06:13.244Z,11.59
2019-05-15T07:07:13.204Z,11.65
2019-05-15T07:08:13.154Z,11.67
2019-05-15T07:09:13.107Z,11.70
2019-05-15T07:10:13.061Z,11.68
2019-05-15T07:11:13.016Z,11.73
2019-05-15T07:12:12.967Z,11.77
2019-05-15T07:13:12.919Z,11.80
2019-05-15T07:14:12.874Z,11.88
2019-05-15T07:15:12.832Z,11.89
2019-05-15T07:16:12.776Z,11.91
2019-05-15T07:17:12.732Z,11.97
2019-05-15T07:18:12.683Z,12.02
2019-05-15T07:19:12.639Z,12.05
2019-05-15T07:20:12.595Z,12.10
2019-05-15T07:21:12.550Z,12.20
2019-05-15T07:22:12.505Z,12.14
2019-05-15T07:23:12.450Z,12.23
2019-05-15T07:24:12.405Z,12.26
2019-05-15T07:25:12.355Z,12.26
2019-05-15T07:26:12.311Z,12.30
2019-05-15T07:27:12.263Z,12.30
2019-05-15T07:28:12.219Z,12.44
2019-05-15T07:29:12.169Z,12.43
2019-05-15T07:30:12.482Z,12.47
2019-05-15T07:31:12.104Z,12.53
2019-05-15T07:32:12.030Z,12.62
2019-05-15T07:33:11.984Z,12.63
2019-05-15T07:34:11.946Z,12.62
2019-05-15T07:35:11.906Z,12.68
2019-05-15T07:36:11.857Z,12.72
2019-05-15T07:37:11.799Z,12.72
2019-05-15T07:38:11.757Z,12.78
2019-05-15T07:39:11.708Z,12.93
2019-05-15T07:40:11.665Z,12.83
2019-05-15T07:41:11.619Z,12.84
2019-05-15T07:42:11.566Z,12.93
2019-05-15T07:43:11.524Z,12.94
2019-05-15T07:44:11.481Z,12.93
2019-05-15T07:45:11.427Z,12.99
2019-05-15T07:46:11.383Z,13.05
2019-05-15T07:47:11.337Z,13.06
2019-05-15T07:48:11.291Z,13.01
2019-05-15T07:49:11.245Z,13.16
2019-05-15T07:50:11.202Z,13.13
2019-05-15T07:51:11.875Z,13.16
2019-05-15T07:52:11.104Z,13.19
2019-05-15T07:53:11.071Z,13.21
2019-05-15T07:54:11.014Z,13.31
2019-05-15T07:55:10.968Z,13.27
2019-05-15T07:56:12.052Z,13.31
2019-05-15T07:57:10.872Z,13.33
2019-05-15T07:58:10.831Z,13.37
2019-05-15T07:59:10.787Z,13.47
2019-05-15T08:00:10.741Z,13.42
2019-05-15T08:01:10.688Z,13.46
2019-05-15T08:02:10.645Z,13.47
2019-05-15T08:03:10.596Z,13.49
2019-05-15T08:04:25.065Z,13.55
2019-05-15T08:05:10.507Z,13.55
2019-05-15T08:06:10.463Z,13.70
2019-05-15T08:07:10.418Z,13.67
2019-05-15T08:08:10.374Z,13.70
2019-05-15T08:09:10.323Z,13.75
2019-05-15T08:10:10.278Z,13.80
2019-05-15T08:11:20.225Z,13.80
2019-05-15T08:12:10.187Z,13.87
2019-05-15T08:13:10.136Z,13.93
2019-05-15T08:14:10.099Z,13.98
2019-05-15T08:15:10.048Z,14.05
2019-05-15T08:16:10.002Z,14.08
2019-05-15T08:17:09.956Z,14.18
2019-05-15T08:18:12.898Z,14.25
2019-05-15T08:19:09.866Z,14.23
2019-05-15T08:20:09.818Z,14.33
2019-05-15T08:21:09.778Z,14.33
2019-05-15T08:22:09.727Z,14.38
2019-05-15T08:23:09.685Z,14.45
2019-05-15T08:24:09.633Z,14.43
2019-05-15T08:25:13.111Z,14.45
2019-05-15T08:26:09.566Z,14.48
2019-05-15T08:27:09.505Z,14.38
2019-05-15T08:28:09.453Z,14.52
2019-05-15T08:29:09.410Z,14.53
2019-05-15T08:30:09.364Z,14.66
2019-05-15T08:31:10.445Z,14.70
2019-05-15T08:32:09.296Z,14.71
2019-05-15T08:33:09.233Z,14.79
2019-05-15T08:34:16.030Z,14.74
2019-05-15T08:35:09.139Z,14.73
2019-05-15T08:36:09.092Z,14.86
2019-05-15T08:37:09.046Z,14.89
2019-05-15T08:38:09.001Z,14.99
2019-05-15T08:39:08.964Z,15.02
2019-05-15T08:40:08.907Z,14.97
2019-05-15T08:41:11.600Z,15.11
2019-05-15T08:42:08.817Z,15.14
2019-05-15T08:43:11.521Z,15.08
2019-05-15T08:44:08.924Z,15.10
2019-05-15T08:45:09.350Z,15.14
2019-05-15T08:46:08.637Z,15.22
2019-05-15T08:47:08.594Z,15.32
2019-05-15T08:48:09.363Z,15.33
2019-05-15T08:49:09.221Z,15.39
2019-05-15T08:50:08.966Z,15.39
2019-05-15T08:51:08.909Z,15.45
2019-05-15T08:52:10.085Z,15.57
2019-05-15T08:53:08.489Z,15.59
2019-05-15T08:54:08.633Z,15.59
2019-05-15T08:55:08.728Z,15.62
2019-05-15T08:56:08.640Z,15.70
2019-05-15T08:57:08.588Z,15.73
2019-05-15T08:58:13.716Z,15.81
2019-05-15T08:59:08.843Z,15.90
2019-05-15T09:00:09.705Z,15.94
2019-05-15T09:01:09.741Z,16.03
2019-05-15T09:02:07.995Z,16.18
2019-05-15T09:04:08.888Z,16.09
2019-05-15T09:05:08.464Z,16.10
2019-05-15T09:06:09.128Z,16.09
2019-05-15T09:07:09.194Z,16.13
2019-05-15T09:08:09.252Z,16.18
2019-05-15T09:09:09.643Z,16.10
2019-05-15T09:10:09.054Z,16.13
2019-05-15T09:11:08.782Z,16.29
2019-05-15T09:12:08.310Z,16.36
2019-05-15T09:13:09.602Z,16.31
2019-05-15T09:14:08.172Z,16.32
2019-05-15T09:15:07.793Z,16.46
2019-05-15T09:16:08.342Z,16.43
2019-05-15T09:17:08.708Z,16.51
2019-05-15T09:18:15.021Z,16.46
2019-05-15T09:19:08.326Z,16.51
2019-05-15T09:20:08.110Z,16.49
2019-05-15T09:21:08.827Z,16.50
2019-05-15T09:22:09.131Z,16.57
2019-05-15T09:23:09.005Z,16.58
2019-05-15T09:24:09.347Z,16.62
2019-05-15T09:25:08.985Z,16.62
2019-05-15T09:26:09.193Z,16.79
2019-05-15T09:27:09.978Z,16.82
2019-05-15T09:28:08.651Z,16.83
2019-05-15T09:29:09.238Z,16.87
2019-05-15T09:30:49.067Z,17.05
2019-05-15T09:31:49.017Z,17.09
2019-05-15T09:32:48.975Z,17.14
2019-05-15T09:33:49.383Z,17.20
2019-05-15T09:34:54.920Z,17.28
2019-05-15T09:35:49.283Z,17.38
2019-05-15T09:36:48.818Z,17.32
2019-05-15T09:37:48.971Z,17.27
2019-05-15T09:38:49.230Z,17.22
2019-05-15T09:39:49.096Z,17.24
2019-05-15T09:40:50.921Z,17.24
2019-05-15T09:41:48.936Z,17.19
2019-05-15T09:42:48.859Z,17.20
2019-05-15T09:43:48.690Z,17.20
2019-05-15T09:44:48.726Z,17.17
2019-05-15T09:45:49.417Z,17.19
2019-05-15T09:46:48.905Z,17.24
2019-05-15T09:47:48.605Z,17.34
2019-05-15T09:48:51.569Z,17.27
2019-05-15T09:49:48.553Z,17.44
2019-05-15T09:50:49.332Z,17.47
2019-05-15T09:51:49.034Z,17.52
2019-05-15T09:52:50.082Z,17.54
2019-05-15T09:53:48.547Z,17.69
2019-05-15T09:54:49.182Z,17.66
2019-05-15T09:55:49.309Z,17.69
2019-05-15T09:56:49.346Z,17.71
2019-05-15T09:57:49.071Z,17.76
2019-05-15T09:58:48.889Z,17.78
2019-05-15T09:59:48.823Z,17.90
2019-05-15T10:00:51.947Z,17.90
2019-05-15T10:01:48.256Z,18.02
2019-05-15T10:02:48.586Z,18.09
2019-05-15T10:03:48.491Z,18.06
2019-05-15T10:04:49.601Z,18.05
2019-05-15T10:05:48.306Z,18.08
2019-05-15T10:06:48.570Z,18.08
2019-05-15T10:07:47.425Z,18.12
2019-05-15T10:08:48.931Z,18.06
2019-05-15T10:09:48.763Z,18.19
2019-05-15T10:10:48.820Z,18.21
2019-05-15T10:11:49.155Z,18.23
2019-05-15T10:12:49.405Z,18.31
2019-05-15T10:13:47.165Z,18.39
2019-05-15T10:14:49.193Z,18.34
2019-05-15T10:15:50.562Z,18.39
2019-05-15T10:16:48.619Z,18.42
2019-05-15T10:17:50.727Z,18.61
2019-05-15T10:18:50.801Z,18.63
2019-05-15T10:19:48.872Z,18.61
2019-05-15T10:20:46.854Z,18.70
2019-05-15T10:21:53.092Z,18.74
2019-05-15T10:22:48.427Z,18.91
2019-05-15T10:24:50.837Z,19.08
2019-05-15T10:25:48.454Z,19.15
2019-05-15T10:26:48.894Z,19.16
2019-05-15T10:27:48.855Z,19.22
2019-05-15T10:28:49.040Z,19.30
2019-05-15T10:29:48.444Z,19.30
2019-05-15T10:30:49.400Z,19.26
2019-05-15T10:31:48.266Z,19.32
2019-05-15T10:32:48.774Z,19.37
2019-05-15T10:33:48.932Z,19.42
2019-05-15T10:34:46.248Z,19.48
2019-05-15T10:35:46.206Z,19.47
2019-05-15T10:36:46.160Z,19.49
2019-05-15T10:37:48.532Z,19.48
2019-05-15T10:38:48.614Z,19.53
2019-05-15T10:39:46.033Z,19.56
2019-05-15T10:41:00.266Z,19.56
2019-05-15T10:41:48.110Z,19.67
2019-05-15T10:42:45.902Z,19.78
2019-05-15T10:48:42.595Z,19.82
2019-05-15T10:49:42.549Z,19.74
2019-05-15T10:50:42.509Z,19.81
2019-05-15T10:51:42.463Z,19.94
2019-05-15T10:52:42.426Z,19.99
2019-05-15T10:53:42.382Z,20.07
2019-05-15T10:54:42.336Z,20.03
2019-05-15T10:55:42.299Z,20.21
2019-05-15T10:56:42.257Z,20.21
2019-05-15T10:57:44.065Z,20.34
2019-05-15T10:58:42.167Z,20.44
2019-05-15T10:59:42.123Z,20.56
2019-05-15T11:00:42.077Z,20.52
2019-05-15T11:01:42.040Z,20.66
2019-05-15T11:02:41.995Z,20.71
2019-05-15T11:03:41.954Z,20.80
2019-05-15T11:04:41.916Z,20.85
2019-05-15T11:05:45.547Z,21.01
2019-05-15T11:06:41.823Z,20.98
2019-05-15T11:07:41.783Z,21.13
2019-05-15T11:08:41.740Z,21.29
2019-05-15T11:09:41.694Z,21.33
2019-05-15T11:10:42.087Z,21.44
2019-05-15T11:11:41.610Z,21.47
2019-05-15T11:12:41.570Z,21.53
2019-05-15T11:13:41.524Z,21.62
2019-05-15T11:14:41.483Z,21.54
2019-05-15T11:15:42.604Z,21.37
2019-05-15T11:16:41.398Z,21.32
2019-05-15T11:17:41.360Z,21.33
2019-05-15T11:18:41.504Z,21.33
2019-05-15T11:19:41.342Z,21.30
2019-05-15T11:20:41.515Z,21.32
2019-05-15T11:21:43.550Z,21.26
2019-05-15T11:22:42.898Z,21.32
2019-05-15T11:23:42.565Z,21.47
2019-05-15T11:24:41.065Z,21.53
2019-05-15T11:25:41.020Z,21.53
2019-05-15T11:26:40.987Z,21.69
2019-05-15T11:27:40.935Z,21.88
2019-05-15T11:28:40.894Z,22.01
2019-05-15T11:29:40.853Z,22.10
2019-05-15T11:30:40.809Z,22.15
2019-05-15T11:31:40.773Z,22.21
2019-05-15T11:32:40.731Z,22.23
2019-05-15T11:33:40.684Z,22.28
2019-05-15T11:34:40.643Z,22.38
2019-05-15T11:35:56.451Z,22.53
2019-05-15T11:36:40.561Z,22.73
2019-05-15T11:37:45.684Z,22.88
2019-05-15T11:38:40.480Z,22.99
2019-05-15T11:39:45.797Z,23.07
2019-05-15T11:40:40.393Z,23.39
2019-05-15T11:41:40.351Z,23.64
2019-05-15T11:42:40.324Z,23.86
2019-05-15T11:43:40.268Z,24.31
2019-05-15T11:44:40.226Z,24.29
2019-05-15T11:45:40.183Z,24.62
2019-05-15T11:46:40.144Z,24.89
2019-05-15T11:47:40.480Z,25.18
2019-05-15T11:48:40.065Z,25.52
2019-05-15T11:49:40.020Z,25.80
2019-05-15T11:50:40.311Z,26.07
2019-05-15T11:51:39.942Z,26.42
2019-05-15T11:52:40.641Z,26.82
2019-05-15T11:53:40.082Z,27.10
2019-05-15T11:54:39.811Z,27.47
2019-05-15T11:55:39.777Z,27.95
2019-05-15T11:56:39.735Z,28.12
2019-05-15T11:57:46.873Z,28.22
2019-05-15T11:58:39.650Z,28.27
2019-05-15T11:59:44.930Z,28.28
2019-05-15T12:00:39.569Z,28.45
2019-05-15T12:01:39.528Z,28.72
2019-05-15T12:02:39.485Z,29.06
2019-05-15T12:03:39.446Z,29.22
2019-05-15T12:04:39.413Z,29.46
2019-05-15T12:05:39.363Z,29.64
2019-05-15T12:06:39.326Z,29.92
2019-05-15T12:07:39.279Z,30.10
2019-05-15T12:08:39.241Z,30.29
2019-05-15T12:09:39.205Z,30.55
2019-05-15T12:10:39.190Z,30.80
2019-05-15T12:11:41.016Z,31.02
2019-05-15T12:12:39.080Z,31.23
2019-05-15T12:13:39.045Z,31.28
2019-05-15T12:14:39.055Z,31.32
2019-05-15T12:15:39.149Z,31.30
2019-05-15T12:16:39.924Z,31.41
2019-05-15T12:17:39.265Z,31.74
2019-05-15T12:18:39.103Z,32.01
2019-05-15T12:19:39.197Z,32.20
2019-05-15T12:20:39.176Z,32.38
2019-05-15T12:21:39.571Z,32.31
2019-05-15T12:22:39.383Z,32.46
2019-05-15T12:23:38.903Z,32.41
2019-05-15T12:24:40.591Z,32.34
2019-05-15T12:25:39.697Z,32.35
2019-05-15T12:26:39.392Z,32.39
2019-05-15T12:27:40.034Z,32.76
2019-05-15T12:28:40.549Z,32.73
2019-05-15T12:29:39.791Z,33.16
2019-05-15T12:31:38.984Z,33.55
2019-05-15T12:32:40.401Z,33.63
2019-05-15T12:33:38.615Z,33.89
2019-05-15T12:34:39.027Z,34.04
2019-05-15T12:35:39.802Z,33.97
2019-05-15T12:36:51.710Z,34.06
2019-05-15T12:59:49.666Z,34.40
2019-05-15T13:00:49.627Z,34.65
2019-05-15T13:01:49.587Z,34.65
2019-05-15T13:02:49.554Z,34.78
2019-05-15T13:03:49.514Z,34.71
2019-05-15T13:04:49.481Z,34.66
2019-05-15T13:05:49.445Z,34.53
2019-05-15T13:07:11.834Z,34.25
2019-05-15T13:07:49.379Z,33.97
2019-05-15T13:08:49.339Z,33.28
2019-05-15T13:09:49.306Z,33.45
2019-05-15T13:10:49.274Z,33.76
2019-05-15T13:11:49.240Z,33.95
2019-05-15T13:12:59.584Z,33.95
2019-05-15T13:13:49.169Z,34.06
2019-05-15T13:14:49.133Z,34.19
2019-05-15T13:15:49.100Z,34.38
2019-05-15T13:16:49.064Z,34.66
2019-05-15T13:17:53.144Z,34.86
2019-05-15T13:18:49.000Z,35.10
2019-05-15T13:19:48.965Z,35.42
2019-05-15T13:20:49.188Z,35.87
2019-05-15T13:21:51.321Z,36.14
2019-05-15T13:23:48.831Z,36.24
2019-05-15T13:24:48.795Z,36.31
2019-05-15T13:25:48.756Z,36.44
2019-05-15T13:26:48.719Z,36.25
2019-05-15T13:27:48.956Z,36.14
2019-05-15T13:28:48.983Z,36.14
2019-05-15T13:29:48.837Z,36.06
2019-05-15T13:30:49.088Z,36.06
2019-05-15T13:31:48.551Z,35.90
2019-05-15T13:32:49.602Z,35.76
2019-05-15T13:33:48.483Z,35.50
2019-05-15T13:34:48.980Z,35.34
2019-05-15T13:35:48.718Z,35.16
2019-05-15T13:36:48.726Z,35.23
2019-05-15T13:37:49.518Z,35.10
2019-05-15T13:38:48.338Z,34.76
2019-05-15T13:39:48.627Z,34.71
2019-05-15T13:40:48.329Z,34.59
2019-05-15T13:41:48.502Z,34.56
2019-05-15T13:42:50.190Z,34.76
2019-05-15T13:43:49.245Z,34.66